Chattanooga Metropolitan Airport Airport (CHA)

 

Airport Diagram
Current Weather/Forecast (VFR Conditions)
METAR KCHA 131153Z 02004KT 10SM SCT034 SCT045 BKN055 BKN250 22/16 A3010 RMK AO2 SLP186 T02170156 10222 20211 53011 $
TAF KCHA 131127Z 1312/1412 01005KT P6SM BKN050 BKN250 FM132000 VRB05KT P6SM SCT050 BKN250 FM140100 00000KT P6SM BKN250

All Charts
General
Chart Name Download
AIRPORT DIAGRAM
TAKEOFF MINIMUMS
ALTERNATE MINIMUMS

Departures
Chart Name Download
CHATTANOOGA SEVEN

Approaches
Chart Name Download
ILS OR LOC RWY 02
ILS OR LOC RWY 20
ILS RWY 20 (CAT II)
RNAV (GPS) RWY 02
RNAV (GPS) RWY 15
RNAV (GPS) RWY 20
RNAV (GPS) RWY 33
VOR RWY 33


Inbound Traffic (Arrivals)

No inbound traffic.


Outbound Traffic (Departures)

No outbound traffic.